createdAt,value
2019-05-29T00:01:27.293Z,12.69
2019-05-29T00:03:54.759Z,12.68
2019-05-29T00:06:22.219Z,12.68
2019-05-29T00:08:49.706Z,12.66
2019-05-29T00:11:18.222Z,12.60
2019-05-29T00:13:45.872Z,12.56
2019-05-29T00:16:14.420Z,12.53
2019-05-29T00:18:41.724Z,12.53
2019-05-29T00:21:11.542Z,12.50
2019-05-29T00:23:36.821Z,12.51
2019-05-29T00:26:04.309Z,12.50
2019-05-29T00:28:31.774Z,12.51
2019-05-29T00:30:59.271Z,12.55
2019-05-29T00:33:26.885Z,12.53
2019-05-29T00:35:54.418Z,12.53
2019-05-29T00:38:21.878Z,12.59
2019-05-29T00:40:49.348Z,12.58
2019-05-29T00:43:17.564Z,12.60
2019-05-29T00:45:44.412Z,12.62
2019-05-29T00:48:11.869Z,12.53
2019-05-29T00:50:39.328Z,12.44
2019-05-29T00:53:08.039Z,12.47
2019-05-29T00:55:34.310Z,12.49
2019-05-29T00:58:01.800Z,12.52
2019-05-29T01:00:29.295Z,12.56
2019-05-29T01:02:56.783Z,12.60
2019-05-29T01:05:24.273Z,12.64
2019-05-29T01:07:51.787Z,12.58
2019-05-29T01:10:19.254Z,12.54
2019-05-29T01:12:46.701Z,12.59
2019-05-29T01:15:15.375Z,12.64
2019-05-29T01:17:41.740Z,12.65
2019-05-29T01:20:09.244Z,12.69
2019-05-29T01:22:36.717Z,12.69
2019-05-29T01:25:05.035Z,12.70
2019-05-29T01:27:32.525Z,12.65
2019-05-29T01:30:00.019Z,12.58
2019-05-29T01:32:27.470Z,12.54
2019-05-29T01:34:54.937Z,12.56
2019-05-29T01:37:22.418Z,12.61
2019-05-29T01:39:49.875Z,12.60
2019-05-29T01:42:17.352Z,12.58
2019-05-29T01:44:44.820Z,12.58
2019-05-29T01:47:12.272Z,12.56
2019-05-29T01:49:40.518Z,12.54
2019-05-29T01:52:08.118Z,12.48
2019-05-29T01:54:35.585Z,12.32
2019-05-29T01:57:03.099Z,12.24
2019-05-29T01:59:30.607Z,12.34
2019-05-29T02:01:58.074Z,12.43
2019-05-29T02:04:25.531Z,12.43
2019-05-29T02:06:52.997Z,12.39
2019-05-29T02:09:20.518Z,12.36
2019-05-29T02:11:47.975Z,12.39
2019-05-29T02:14:16.372Z,12.30
2019-05-29T02:16:42.967Z,12.14
2019-05-29T02:19:10.457Z,12.10
2019-05-29T02:21:37.918Z,12.29
2019-05-29T02:24:05.425Z,12.39
2019-05-29T02:26:32.875Z,12.44
2019-05-29T02:29:00.345Z,12.45
2019-05-29T02:31:28.871Z,12.47
2019-05-29T02:33:55.314Z,12.50
2019-05-29T02:36:24.530Z,12.52
2019-05-29T02:38:50.895Z,12.47
2019-05-29T02:41:19.144Z,12.39
2019-05-29T02:43:46.655Z,12.40
2019-05-29T02:46:14.119Z,12.24
2019-05-29T02:48:41.682Z,12.18
2019-05-29T02:51:12.178Z,12.20
2019-05-29T02:53:37.091Z,12.22
2019-05-29T02:56:04.575Z,12.16
2019-05-29T02:58:32.156Z,12.31
2019-05-29T03:00:59.645Z,12.40
2019-05-29T03:03:29.548Z,12.42
2019-05-29T03:05:55.555Z,12.46
2019-05-29T03:08:24.709Z,12.46
2019-05-29T03:10:50.605Z,12.49
2019-05-29T03:13:18.083Z,12.43
2019-05-29T03:15:45.544Z,12.33
2019-05-29T03:18:13.051Z,12.28
2019-05-29T03:20:40.511Z,12.30
2019-05-29T03:23:07.993Z,12.30
2019-05-29T03:25:36.931Z,12.23
2019-05-29T03:28:02.978Z,12.15
2019-05-29T03:30:36.807Z,12.13
2019-05-29T03:32:58.011Z,12.15
2019-05-29T03:35:28.182Z,12.23
2019-05-29T03:37:53.072Z,12.23
2019-05-29T03:40:20.554Z,12.22
2019-05-29T03:42:48.028Z,12.23
2019-05-29T03:45:15.583Z,12.21
2019-05-29T03:47:43.059Z,12.17
2019-05-29T03:50:10.534Z,12.18
2019-05-29T03:52:38.930Z,12.19
2019-05-29T03:55:05.533Z,12.19
2019-05-29T03:57:33.868Z,12.17
2019-05-29T04:00:00.541Z,12.18
2019-05-29T04:02:28.726Z,12.23
2019-05-29T04:04:55.716Z,12.29
2019-05-29T04:07:23.197Z,12.33
2019-05-29T04:09:50.645Z,12.36
2019-05-29T04:12:19.156Z,12.37
2019-05-29T04:14:45.639Z,12.34
2019-05-29T04:17:13.102Z,12.33
2019-05-29T04:19:40.586Z,12.38
2019-05-29T04:22:08.913Z,12.44
2019-05-29T04:24:38.063Z,12.49
2019-05-29T04:27:03.889Z,12.44
2019-05-29T04:29:32.016Z,12.51
2019-05-29T04:31:58.883Z,12.54
2019-05-29T04:34:26.370Z,12.62
2019-05-29T04:36:53.859Z,12.59
2019-05-29T04:39:22.586Z,12.65
2019-05-29T04:41:50.595Z,12.72
2019-05-29T04:44:17.603Z,12.75
2019-05-29T04:46:44.640Z,12.79
2019-05-29T04:49:12.120Z,12.84
2019-05-29T04:51:40.022Z,12.89
2019-05-29T04:54:06.677Z,12.95
2019-05-29T04:56:34.677Z,12.96
2019-05-29T04:59:00.836Z,12.97
2019-05-29T05:01:29.019Z,13.02
2019-05-29T05:03:55.002Z,13.03
2019-05-29T05:06:21.984Z,13.11
2019-05-29T05:08:49.194Z,13.09
2019-05-29T05:11:16.230Z,13.07
2019-05-29T05:13:43.260Z,13.12
2019-05-29T05:16:10.343Z,13.24
2019-05-29T05:18:37.956Z,13.34
2019-05-29T05:21:04.543Z,13.44
2019-05-29T05:23:31.977Z,13.50
2019-05-29T05:25:58.818Z,13.50
2019-05-29T05:28:25.887Z,13.52
2019-05-29T05:30:52.889Z,13.54
2019-05-29T05:33:19.960Z,13.63
2019-05-29T05:35:47.000Z,13.64
2019-05-29T05:38:14.016Z,13.60
2019-05-29T05:40:43.014Z,13.55
2019-05-29T05:43:21.207Z,13.55
2019-05-29T05:45:35.224Z,13.62
2019-05-29T05:48:02.254Z,13.71
2019-05-29T05:50:29.286Z,13.72
2019-05-29T05:52:56.309Z,13.79
2019-05-29T05:55:23.471Z,13.93
2019-05-29T05:57:50.564Z,13.91
2019-05-29T06:00:17.638Z,13.96
2019-05-29T06:02:44.694Z,13.99
2019-05-29T06:05:11.709Z,14.06
2019-05-29T06:07:38.725Z,14.14
2019-05-29T06:10:05.800Z,14.28
2019-05-29T06:12:34.384Z,14.37
2019-05-29T06:15:00.406Z,14.45
2019-05-29T06:17:27.520Z,14.60
2019-05-29T06:19:54.587Z,14.64
2019-05-29T06:22:21.731Z,14.56
2019-05-29T06:24:49.074Z,14.47
2019-05-29T06:27:16.115Z,14.40
2019-05-29T06:29:43.601Z,14.45
2019-05-29T06:32:10.153Z,14.57
2019-05-29T06:34:37.529Z,14.57
2019-05-29T06:37:04.314Z,14.71
2019-05-29T06:39:31.361Z,14.95
2019-05-29T06:41:58.354Z,15.09
2019-05-29T06:44:25.365Z,15.13
2019-05-29T06:46:52.357Z,15.04
2019-05-29T06:49:19.359Z,15.05
2019-05-29T06:51:47.464Z,15.20
2019-05-29T06:54:13.475Z,15.18
2019-05-29T06:56:41.752Z,15.06
2019-05-29T06:59:07.937Z,14.98
2019-05-29T07:01:35.276Z,15.07
2019-05-29T07:06:46.790Z,15.39
2019-05-29T07:09:13.406Z,15.50
2019-05-29T07:11:41.336Z,15.81
2019-05-29T07:14:07.605Z,16.07
2019-05-29T07:16:46.409Z,16.32
2019-05-29T07:19:25.331Z,16.60
2019-05-29T07:21:28.792Z,16.87
2019-05-29T07:23:56.048Z,16.76
2019-05-29T07:26:23.289Z,16.99
2019-05-29T07:29:07.537Z,16.66
2019-05-29T07:31:17.485Z,16.72
2019-05-29T07:33:45.269Z,16.68
2019-05-29T07:36:11.586Z,16.99
2019-05-29T07:38:39.640Z,17.24
2019-05-29T07:41:06.345Z,17.18
2019-05-29T07:43:33.427Z,17.45
2019-05-29T07:46:00.523Z,17.74
2019-05-29T07:48:28.059Z,17.84
2019-05-29T07:51:06.707Z,18.05
2019-05-29T07:53:22.172Z,18.04
2019-05-29T07:55:49.248Z,18.14
2019-05-29T07:58:16.273Z,18.31
2019-05-29T08:01:06.728Z,18.47
2019-05-29T08:03:10.918Z,18.40
2019-05-29T08:05:39.100Z,18.01
2019-05-29T08:08:05.037Z,17.41
2019-05-29T08:10:32.182Z,16.90
2019-05-29T08:12:59.788Z,16.94
2019-05-29T08:15:27.516Z,17.07
2019-05-29T08:17:55.012Z,17.36
2019-05-29T08:20:22.575Z,17.15
2019-05-29T08:22:50.549Z,17.18
2019-05-29T08:25:17.557Z,17.16
2019-05-29T08:27:45.051Z,17.37
2019-05-29T08:30:12.675Z,17.43
2019-05-29T08:32:40.809Z,17.44
2019-05-29T08:35:07.757Z,17.42
2019-05-29T08:37:35.230Z,17.49
2019-05-29T08:40:02.743Z,17.51
2019-05-29T08:42:30.200Z,17.84
2019-05-29T08:44:57.665Z,18.03
2019-05-29T08:47:25.172Z,17.94
2019-05-29T08:49:54.430Z,17.93
2019-05-29T08:52:20.226Z,17.80
2019-05-29T08:54:48.097Z,18.27
2019-05-29T08:57:15.266Z,18.80
2019-05-29T08:59:44.436Z,19.36
2019-05-29T09:02:11.055Z,19.79
2019-05-29T09:04:38.576Z,20.00
2019-05-29T09:07:06.060Z,19.28
2019-05-29T09:09:33.713Z,19.15
2019-05-29T09:12:01.215Z,18.92
2019-05-29T09:14:28.689Z,19.08
2019-05-29T09:16:56.305Z,19.00
2019-05-29T09:19:23.924Z,18.88
2019-05-29T09:21:51.384Z,19.05
2019-05-29T09:24:19.407Z,19.38
2019-05-29T09:26:46.698Z,19.72
2019-05-29T09:29:16.726Z,19.80
2019-05-29T09:31:41.471Z,19.52
2019-05-29T09:34:08.929Z,19.65
2019-05-29T09:36:36.408Z,19.66
2019-05-29T09:39:04.256Z,19.88
2019-05-29T09:41:31.751Z,20.47
2019-05-29T09:44:00.342Z,20.71
2019-05-29T09:46:26.351Z,21.02
2019-05-29T09:48:53.367Z,20.80
2019-05-29T09:51:21.936Z,20.78
2019-05-29T09:53:48.227Z,20.85
2019-05-29T09:56:15.307Z,20.59
2019-05-29T09:58:42.308Z,21.00
2019-05-29T10:01:22.338Z,20.83
2019-05-29T10:03:36.407Z,20.51
2019-05-29T10:06:04.266Z,20.61
2019-05-29T10:08:30.522Z,20.68
2019-05-29T10:11:07.924Z,20.34
2019-05-29T10:13:24.623Z,19.92
2019-05-29T10:15:51.722Z,19.78
2019-05-29T10:18:32.070Z,19.83
2019-05-29T10:20:46.082Z,20.20
2019-05-29T10:23:13.201Z,20.35
2019-05-29T10:25:40.247Z,20.77
2019-05-29T10:28:07.321Z,20.58
2019-05-29T10:30:34.340Z,20.49
2019-05-29T10:33:01.542Z,20.42
2019-05-29T10:35:28.589Z,20.45
2019-05-29T10:37:55.738Z,20.92
2019-05-29T10:40:22.921Z,21.61
2019-05-29T10:42:51.226Z,21.92
2019-05-29T10:45:17.440Z,22.17
2019-05-29T10:47:45.521Z,22.13
2019-05-29T10:50:12.752Z,22.16
2019-05-29T10:52:40.439Z,21.94
2019-05-29T10:55:07.918Z,22.23
2019-05-29T10:57:35.397Z,22.28
2019-05-29T11:00:03.622Z,21.95
2019-05-29T11:02:31.128Z,21.99
2019-05-29T11:04:59.689Z,22.18
2019-05-29T11:07:26.114Z,21.70
2019-05-29T11:09:54.283Z,21.37
2019-05-29T11:12:21.085Z,21.06
2019-05-29T11:14:48.631Z,20.72
2019-05-29T11:17:16.242Z,20.80
2019-05-29T11:19:43.792Z,20.63
2019-05-29T11:22:25.725Z,20.85
2019-05-29T11:24:38.901Z,21.06
2019-05-29T11:27:06.540Z,20.94
2019-05-29T11:29:34.480Z,20.82
2019-05-29T11:32:01.966Z,21.24
2019-05-29T11:34:29.437Z,21.35
2019-05-29T11:36:56.961Z,21.07
2019-05-29T11:39:24.431Z,20.89
2019-05-29T11:41:52.703Z,20.90
2019-05-29T11:44:19.558Z,20.70
2019-05-29T11:46:47.017Z,20.62
2019-05-29T11:49:14.481Z,20.77
2019-05-29T11:51:44.407Z,20.77
2019-05-29T11:54:09.712Z,20.64
2019-05-29T11:56:37.194Z,21.07
2019-05-29T11:59:04.871Z,21.67
2019-05-29T12:01:49.155Z,21.92
2019-05-29T12:04:22.024Z,22.45
2019-05-29T12:06:27.495Z,22.42
2019-05-29T12:08:55.767Z,22.57
2019-05-29T12:11:22.621Z,22.76
2019-05-29T12:13:51.586Z,23.06
2019-05-29T12:16:17.768Z,22.66
2019-05-29T12:18:45.216Z,22.71
2019-05-29T12:21:12.702Z,23.07
2019-05-29T12:23:40.277Z,23.03
2019-05-29T12:26:21.479Z,23.24
2019-05-29T12:28:36.201Z,23.16
2019-05-29T12:31:04.326Z,22.74
2019-05-29T12:33:31.796Z,22.40
2019-05-29T12:35:59.305Z,21.69
2019-05-29T12:38:26.759Z,21.54
2019-05-29T12:40:55.339Z,21.97
2019-05-29T12:43:27.132Z,22.41
2019-05-29T12:45:49.411Z,22.10
2019-05-29T12:48:17.193Z,22.09
2019-05-29T12:50:44.496Z,21.92
2019-05-29T12:53:29.073Z,21.95
2019-05-29T12:55:39.513Z,22.18
2019-05-29T12:58:06.976Z,22.00
2019-05-29T13:00:34.459Z,22.00
2019-05-29T13:03:03.115Z,22.12
2019-05-29T13:05:29.522Z,22.10
2019-05-29T13:07:58.682Z,22.33
2019-05-29T13:10:30.606Z,22.46
2019-05-29T13:12:53.272Z,22.73
2019-05-29T13:15:20.277Z,23.21
2019-05-29T13:17:47.758Z,23.04
2019-05-29T13:20:21.801Z,22.59
2019-05-29T13:22:42.864Z,22.51
2019-05-29T13:25:12.245Z,22.53
2019-05-29T13:27:37.894Z,22.80
2019-05-29T13:30:08.356Z,23.14
2019-05-29T13:32:34.534Z,23.08
2019-05-29T13:35:04.228Z,22.22
2019-05-29T13:37:30.749Z,21.84
2019-05-29T13:39:58.262Z,21.96
2019-05-29T13:42:25.782Z,22.16
2019-05-29T13:44:53.888Z,21.93
2019-05-29T13:47:21.036Z,22.04
2019-05-29T13:49:48.517Z,21.86
2019-05-29T13:52:16.278Z,21.85
2019-05-29T13:54:43.774Z,21.66
2019-05-29T13:57:11.254Z,21.62
2019-05-29T13:59:38.727Z,21.51
2019-05-29T14:02:07.872Z,21.60
2019-05-29T14:04:33.946Z,21.98
2019-05-29T14:07:03.241Z,22.31
2019-05-29T14:09:29.185Z,22.26
2019-05-29T14:11:56.647Z,21.55
2019-05-29T14:14:24.130Z,21.32
2019-05-29T14:16:51.679Z,21.38
2019-05-29T14:19:19.201Z,21.45
2019-05-29T14:21:46.709Z,21.21
2019-05-29T14:24:28.743Z,21.30
2019-05-29T14:26:41.734Z,21.58
2019-05-29T14:29:10.064Z,21.75
2019-05-29T14:31:36.944Z,21.69
2019-05-29T14:34:05.145Z,21.54
2019-05-29T14:36:32.030Z,21.46
2019-05-29T14:38:59.565Z,21.22
2019-05-29T14:41:27.079Z,21.24
2019-05-29T14:43:54.540Z,21.17
2019-05-29T14:46:22.082Z,20.86
2019-05-29T14:48:49.546Z,20.56
2019-05-29T14:51:17.131Z,20.56
2019-05-29T14:53:44.614Z,20.55
2019-05-29T14:56:12.681Z,20.59
2019-05-29T14:58:39.606Z,20.41
2019-05-29T15:01:07.239Z,20.62
2019-05-29T15:03:34.733Z,20.79
2019-05-29T15:06:03.457Z,21.01
2019-05-29T15:08:30.008Z,20.88
2019-05-29T15:10:57.451Z,20.86
2019-05-29T15:13:24.942Z,21.04
2019-05-29T15:15:57.473Z,20.87
2019-05-29T15:18:24.960Z,20.73
2019-05-29T15:20:52.454Z,20.68
2019-05-29T15:23:19.915Z,20.48
2019-05-29T15:25:47.382Z,20.31
2019-05-29T15:28:17.380Z,20.19
2019-05-29T15:30:42.652Z,20.27
2019-05-29T15:33:10.899Z,20.63
2019-05-29T15:35:38.220Z,21.08
2019-05-29T15:38:06.683Z,21.38
2019-05-29T15:40:33.302Z,21.58
2019-05-29T15:43:00.792Z,21.47
2019-05-29T15:45:28.404Z,21.21
2019-05-29T15:47:55.925Z,20.89
2019-05-29T15:50:23.441Z,20.68
2019-05-29T15:52:51.791Z,20.49
2019-05-29T15:55:29.607Z,20.19
2019-05-29T15:57:47.438Z,19.81
2019-05-29T16:00:15.726Z,19.82
2019-05-29T16:02:43.046Z,19.87
2019-05-29T16:05:11.156Z,19.85
2019-05-29T16:07:38.006Z,19.93
2019-05-29T16:10:06.370Z,20.33
2019-05-29T16:12:33.871Z,20.41
2019-05-29T16:15:01.372Z,20.72
2019-05-29T16:17:28.874Z,20.98
2019-05-29T16:19:56.354Z,21.14
2019-05-29T16:22:23.814Z,21.13
2019-05-29T16:24:51.359Z,20.97
2019-05-29T16:27:18.833Z,20.82
2019-05-29T16:29:46.337Z,20.91
2019-05-29T16:32:13.814Z,20.90
2019-05-29T16:34:41.322Z,20.98
2019-05-29T16:37:08.835Z,20.70
2019-05-29T16:39:36.295Z,20.34
2019-05-29T16:42:03.738Z,20.26
2019-05-29T16:44:31.273Z,20.11
2019-05-29T16:46:58.957Z,20.00
2019-05-29T16:49:26.443Z,19.77
2019-05-29T16:51:54.037Z,19.46
2019-05-29T16:54:21.509Z,19.34
2019-05-29T16:56:49.036Z,19.31
2019-05-29T16:59:17.038Z,19.23
2019-05-29T17:01:44.295Z,19.11
2019-05-29T17:04:11.750Z,19.02
2019-05-29T17:06:39.375Z,19.11
2019-05-29T17:09:07.914Z,19.13
2019-05-29T17:11:35.409Z,19.21
2019-05-29T17:14:03.041Z,19.26
2019-05-29T17:16:30.588Z,19.14
2019-05-29T17:18:58.870Z,18.96
2019-05-29T17:21:27.000Z,18.81
2019-05-29T17:23:54.508Z,18.62
2019-05-29T17:26:22.761Z,18.91
2019-05-29T17:28:49.565Z,19.29
2019-05-29T17:31:17.058Z,19.59
2019-05-29T17:33:44.543Z,19.50
2019-05-29T17:36:12.110Z,19.68
2019-05-29T17:38:39.907Z,19.67
2019-05-29T17:41:07.430Z,19.73
2019-05-29T17:43:34.914Z,19.69
2019-05-29T17:46:02.434Z,19.77
2019-05-29T17:48:29.995Z,19.64
2019-05-29T17:50:57.761Z,19.69
2019-05-29T17:53:26.184Z,19.67
2019-05-29T17:55:52.824Z,19.70
2019-05-29T17:58:21.081Z,19.60
2019-05-29T18:00:47.953Z,19.63
2019-05-29T18:03:16.081Z,19.67
2019-05-29T18:05:42.995Z,19.67
2019-05-29T18:08:10.634Z,19.59
2019-05-29T18:10:38.116Z,19.30
2019-05-29T18:13:06.191Z,19.11
2019-05-29T18:15:33.754Z,18.98
2019-05-29T18:18:01.305Z,18.92
2019-05-29T18:20:28.850Z,18.89
2019-05-29T18:22:56.367Z,18.83
2019-05-29T18:25:24.049Z,18.82
2019-05-29T18:27:51.464Z,18.76
2019-05-29T18:30:20.192Z,18.68
2019-05-29T18:32:46.647Z,18.50
2019-05-29T18:35:14.367Z,18.21
2019-05-29T18:37:41.882Z,17.88
2019-05-29T18:40:12.418Z,17.84
2019-05-29T18:42:36.959Z,17.73
2019-05-29T18:45:19.645Z,17.76
2019-05-29T18:47:34.111Z,17.62
2019-05-29T18:50:01.568Z,17.62
2019-05-29T18:52:29.945Z,17.54
2019-05-29T18:54:56.844Z,17.49
2019-05-29T18:57:25.079Z,17.39
2019-05-29T18:59:51.913Z,17.42
2019-05-29T19:02:19.401Z,17.36
2019-05-29T19:04:46.908Z,17.15
2019-05-29T19:07:14.396Z,16.96
2019-05-29T19:09:41.468Z,16.75
2019-05-29T19:12:08.525Z,16.60
2019-05-29T19:14:36.032Z,16.47
2019-05-29T19:17:03.578Z,16.42
2019-05-29T19:19:32.379Z,16.31
2019-05-29T19:21:58.623Z,16.29
2019-05-29T19:24:26.569Z,16.24
2019-05-29T19:26:53.652Z,16.16
2019-05-29T19:29:21.257Z,16.08
2019-05-29T19:31:48.725Z,16.12
2019-05-29T19:34:16.200Z,16.00
2019-05-29T19:36:44.040Z,15.92
2019-05-29T19:39:11.693Z,15.91
2019-05-29T19:41:39.201Z,15.88
2019-05-29T19:44:06.722Z,15.91
2019-05-29T19:46:52.277Z,15.87
2019-05-29T19:49:01.768Z,15.85
2019-05-29T19:51:29.243Z,15.90
2019-05-29T19:53:56.822Z,15.88
2019-05-29T19:56:25.568Z,15.90
2019-05-29T19:58:51.970Z,15.85
2019-05-29T20:01:30.771Z,15.90
2019-05-29T20:03:47.006Z,15.81
2019-05-29T20:06:14.500Z,15.80
2019-05-29T20:08:42.028Z,15.83
2019-05-29T20:11:09.626Z,15.88
2019-05-29T20:13:37.986Z,15.88
2019-05-29T20:16:04.708Z,15.86
2019-05-29T20:18:32.172Z,15.87
2019-05-29T20:20:59.730Z,15.92
2019-05-29T20:23:28.488Z,15.97
2019-05-29T20:25:54.949Z,15.98
2019-05-29T20:28:22.540Z,15.96
2019-05-29T20:30:50.034Z,15.96
2019-05-29T20:33:17.544Z,16.03
2019-05-29T20:35:45.045Z,16.05
2019-05-29T20:38:13.372Z,16.10
2019-05-29T20:40:41.819Z,16.11
2019-05-29T20:43:09.500Z,16.22
2019-05-29T20:45:37.686Z,16.21
2019-05-29T20:48:05.266Z,16.14
2019-05-29T20:50:32.887Z,16.15
2019-05-29T20:53:00.459Z,16.11
2019-05-29T20:55:28.006Z,16.08
2019-05-29T20:57:55.637Z,15.99
2019-05-29T21:00:23.162Z,16.04
2019-05-29T21:02:50.645Z,16.08
2019-05-29T21:05:18.235Z,16.17
2019-05-29T21:07:45.743Z,16.26
2019-05-29T21:10:13.349Z,16.34
2019-05-29T21:12:44.077Z,16.35
2019-05-29T21:15:08.378Z,16.43
2019-05-29T21:17:36.043Z,16.51
2019-05-29T21:20:03.560Z,16.56
2019-05-29T21:22:31.684Z,16.59
2019-05-29T21:25:05.034Z,16.59
2019-05-29T21:27:26.866Z,16.56
2019-05-29T21:29:54.363Z,16.28
2019-05-29T21:32:21.893Z,16.08
2019-05-29T21:34:49.344Z,15.96
2019-05-29T21:37:16.856Z,15.98
2019-05-29T21:39:44.708Z,15.92
2019-05-29T21:42:12.220Z,15.91
2019-05-29T21:44:40.669Z,15.86
2019-05-29T21:47:07.192Z,15.78
2019-05-29T21:49:34.627Z,15.69
2019-05-29T21:52:02.135Z,15.64
2019-05-29T21:54:29.634Z,15.66
2019-05-29T21:56:57.138Z,15.68
2019-05-29T21:59:24.692Z,15.68
2019-05-29T22:01:52.276Z,15.71
2019-05-29T22:04:19.731Z,15.60
2019-05-29T22:06:49.016Z,15.52
2019-05-29T22:09:16.619Z,15.48
2019-05-29T22:11:44.149Z,15.38
2019-05-29T22:14:11.668Z,15.33
2019-05-29T22:16:39.210Z,15.28
2019-05-29T22:19:06.642Z,15.22
2019-05-29T22:21:34.149Z,15.22
2019-05-29T22:24:01.645Z,15.25
2019-05-29T22:26:29.144Z,15.27
2019-05-29T22:28:58.592Z,15.21
2019-05-29T22:31:24.216Z,15.21
2019-05-29T22:33:53.409Z,15.22
2019-05-29T22:36:20.493Z,15.26
2019-05-29T22:38:48.075Z,15.24
2019-05-29T22:41:15.597Z,15.19
2019-05-29T22:43:43.108Z,15.16
2019-05-29T22:46:10.562Z,15.18
2019-05-29T22:48:38.021Z,15.13
2019-05-29T22:51:05.493Z,15.09
2019-05-29T22:53:33.059Z,15.12
2019-05-29T22:56:00.531Z,15.13
2019-05-29T22:58:27.988Z,15.11
2019-05-29T23:00:55.935Z,15.07
2019-05-29T23:03:22.990Z,15.02
2019-05-29T23:05:51.974Z,14.98
2019-05-29T23:08:18.105Z,14.86
2019-05-29T23:10:45.575Z,14.77
2019-05-29T23:13:13.203Z,14.76
2019-05-29T23:15:41.007Z,14.76
2019-05-29T23:18:08.475Z,14.68
2019-05-29T23:20:35.956Z,14.61
2019-05-29T23:23:03.441Z,14.56
2019-05-29T23:25:31.069Z,14.60
2019-05-29T23:27:59.047Z,14.61
2019-05-29T23:30:26.125Z,14.52
2019-05-29T23:32:54.765Z,14.46
2019-05-29T23:35:21.322Z,14.51
2019-05-29T23:37:48.780Z,14.48
2019-05-29T23:40:16.262Z,14.42
2019-05-29T23:42:43.836Z,14.38
2019-05-29T23:45:11.307Z,14.36
2019-05-29T23:47:38.802Z,14.33
2019-05-29T23:50:06.302Z,14.34
2019-05-29T23:52:33.770Z,14.33
2019-05-29T23:55:01.927Z,14.34
2019-05-29T23:57:28.752Z,14.38
